Time;durP1;ratioP1;P1;durP2;ratioP2;P2;SDS_P1;SDS_P2;PMS_P1;PMS_P2;Temp;Humidity;BMP_temperature;BMP_pressure;BME280_temperature;BME280_humidity;BME280_pressure;Samples;Min_cycle;Max_cycle;Signal;HPM_P1;HPM_P2
2020/12/19 00:00:05;;;;;;;12.05;4.65;;;;;;;;;;5005184;28;20050;-58
2020/12/19 00:02:31;;;;;;;10.13;4.25;;;;;;;;;;5014302;28;20044;-58
2020/12/19 00:05:05;;;;;;;13.68;5.05;;;;;;;;;;5006057;28;20022;-51
2020/12/19 00:07:33;;;;;;;8.63;4.05;;;;;;;;;;5013095;28;20062;-57
2020/12/19 00:10:00;;;;;;;10.98;3.75;;;;;;;;;;5005800;28;20050;-58
2020/12/19 00:12:27;;;;;;;13.57;4.93;;;;;;;;;;5011741;28;20046;-55
2020/12/19 00:14:53;;;;;;;10.63;4.25;;;;;;;;;;5011720;28;20126;-56
2020/12/19 00:17:19;;;;;;;12.60;4.22;;;;;;;;;;5013086;28;20078;-55
2020/12/19 00:19:45;;;;;;;9.00;4.20;;;;;;;;;;5010235;28;20102;-53
2020/12/19 00:22:11;;;;;;;13.20;4.65;;;;;;;;;;5008879;28;20066;-59
2020/12/19 00:24:39;;;;;;;10.27;4.25;;;;;;;;;;5021243;28;20045;-56
2020/12/19 00:27:08;;;;;;;12.50;4.38;;;;;;;;;;5017784;28;20119;-57
2020/12/19 00:29:35;;;;;;;13.35;4.70;;;;;;;;;;5022123;28;20042;-57
2020/12/19 00:32:01;;;;;;;13.27;4.95;;;;;;;;;;5016987;28;20042;-54
2020/12/19 00:34:27;;;;;;;10.73;4.47;;;;;;;;;;5023233;28;20112;-52
2020/12/19 00:36:53;;;;;;;10.40;4.43;;;;;;;;;;5018892;28;20061;-58
2020/12/19 00:39:19;;;;;;;12.57;4.35;;;;;;;;;;5024212;28;20030;-55
2020/12/19 00:41:46;;;;;;;10.52;4.55;;;;;;;;;;5015028;28;20089;-58
2020/12/19 00:44:12;;;;;;;10.85;4.43;;;;;;;;;;5022129;28;20078;-58
2020/12/19 00:46:40;;;;;;;9.50;4.22;;;;;;;;;;5010403;28;20439;-55
2020/12/19 00:49:06;;;;;;;11.45;4.63;;;;;;;;;;5004422;28;20050;-59
2020/12/19 00:51:32;;;;;;;12.75;4.32;;;;;;;;;;4999089;28;20131;-56
2020/12/19 00:53:58;;;;;;;16.33;5.57;;;;;;;;;;5004392;28;20050;-58
2020/12/19 00:56:26;;;;;;;13.57;5.00;;;;;;;;;;4999687;28;20061;-56
2020/12/19 00:58:53;;;;;;;11.88;5.10;;;;;;;;;;5002176;28;20437;-59
2020/12/19 01:01:20;;;;;;;12.27;5.00;;;;;;;;;;4999524;28;20050;-53
2020/12/19 01:03:47;;;;;;;15.05;5.05;;;;;;;;;;5001492;28;20050;-54
2020/12/19 01:06:14;;;;;;;11.32;4.72;;;;;;;;;;5003193;28;20045;-58
2020/12/19 01:08:40;;;;;;;11.90;5.10;;;;;;;;;;5015590;28;20097;-55
2020/12/19 01:11:06;;;;;;;12.23;5.15;;;;;;;;;;5022083;28;20044;-55
2020/12/19 01:13:32;;;;;;;13.32;4.85;;;;;;;;;;5003797;28;20034;-56
2020/12/19 01:15:58;;;;;;;10.95;4.53;;;;;;;;;;5002451;28;20049;-56
2020/12/19 01:18:25;;;;;;;13.90;4.72;;;;;;;;;;5000003;28;20136;-54
2020/12/19 01:20:51;;;;;;;12.27;4.28;;;;;;;;;;5003948;28;20054;-59
2020/12/19 01:23:17;;;;;;;12.52;4.75;;;;;;;;;;5009044;28;20053;-56
2020/12/19 01:25:43;;;;;;;14.90;5.45;;;;;;;;;;5022925;28;20037;-56
2020/12/19 01:28:09;;;;;;;11.52;4.80;;;;;;;;;;5010754;28;20054;-53
2020/12/19 01:30:36;;;;;;;12.88;4.93;;;;;;;;;;5003798;28;20496;-55
2020/12/19 01:33:02;;;;;;;14.48;5.25;;;;;;;;;;5002731;28;20041;-60
2020/12/19 01:35:28;;;;;;;14.07;5.30;;;;;;;;;;5002622;28;20052;-54
2020/12/19 01:37:55;;;;;;;12.07;4.90;;;;;;;;;;5001711;28;20034;-51
2020/12/19 01:40:21;;;;;;;12.00;5.32;;;;;;;;;;5022882;28;20041;-53
2020/12/19 01:42:47;;;;;;;14.02;5.75;;;;;;;;;;5008122;28;20053;-54
2020/12/19 01:45:13;;;;;;;12.85;5.32;;;;;;;;;;5002656;28;20046;-54
2020/12/19 01:47:40;;;;;;;12.93;5.05;;;;;;;;;;5002839;28;20049;-55
2020/12/19 01:50:07;;;;;;;12.50;5.70;;;;;;;;;;5002173;28;20038;-56
2020/12/19 01:52:33;;;;;;;10.23;4.53;;;;;;;;;;5002760;28;20046;-55
2020/12/19 01:55:01;;;;;;;12.82;5.47;;;;;;;;;;5012866;28;20088;-58
2020/12/19 01:57:29;;;;;;;14.55;5.28;;;;;;;;;;5022800;28;20050;-57
2020/12/19 01:59:55;;;;;;;13.05;5.32;;;;;;;;;;5017938;28;20046;-54
2020/12/19 02:02:23;;;;;;;12.15;5.32;;;;;;;;;;5011418;28;20044;-55
2020/12/19 02:04:49;;;;;;;14.65;5.68;;;;;;;;;;5008697;28;20033;-55
2020/12/19 02:07:15;;;;;;;14.35;5.28;;;;;;;;;;5021751;28;20176;-56
2020/12/19 02:09:41;;;;;;;11.68;5.22;;;;;;;;;;5017522;28;20034;-53
2020/12/19 02:12:09;;;;;;;15.48;5.38;;;;;;;;;;5021208;28;20057;-54
2020/12/19 02:14:35;;;;;;;11.73;5.13;;;;;;;;;;5014516;28;20038;-53
2020/12/19 02:17:01;;;;;;;15.27;4.63;;;;;;;;;;5001594;28;20149;-59
2020/12/19 02:19:28;;;;;;;12.60;5.07;;;;;;;;;;4996492;28;20046;-53
2020/12/19 02:21:54;;;;;;;14.10;5.25;;;;;;;;;;5016779;28;20056;-57
2020/12/19 02:24:21;;;;;;;12.80;4.88;;;;;;;;;;5000840;28;20098;-55
2020/12/19 02:26:48;;;;;;;13.10;4.78;;;;;;;;;;4998619;28;20046;-56
2020/12/19 02:29:14;;;;;;;12.23;4.68;;;;;;;;;;5002075;28;20050;-56
2020/12/19 02:31:40;;;;;;;13.38;5.13;;;;;;;;;;5013915;28;20048;-55
2020/12/19 02:34:06;;;;;;;13.00;5.30;;;;;;;;;;5020163;28;20118;-57
2020/12/19 02:36:32;;;;;;;12.45;4.60;;;;;;;;;;5016878;28;20037;-57
2020/12/19 02:38:58;;;;;;;14.18;4.88;;;;;;;;;;5021607;28;20048;-60
2020/12/19 02:41:25;;;;;;;11.77;4.65;;;;;;;;;;5007269;28;20046;-56
2020/12/19 02:43:52;;;;;;;14.27;5.68;;;;;;;;;;5001524;28;20409;-58
2020/12/19 02:46:18;;;;;;;12.57;5.45;;;;;;;;;;4999630;28;20042;-55
2020/12/19 02:48:44;;;;;;;10.15;4.60;;;;;;;;;;4999999;28;20030;-53
2020/12/19 02:51:10;;;;;;;14.13;5.55;;;;;;;;;;5005209;28;20135;-56
2020/12/19 02:53:36;;;;;;;15.13;5.35;;;;;;;;;;5020445;28;20034;-57
2020/12/19 02:56:02;;;;;;;12.35;5.40;;;;;;;;;;5016734;28;20060;-54
2020/12/19 02:58:29;;;;;;;13.80;5.70;;;;;;;;;;5001593;28;20066;-58
2020/12/19 03:00:55;;;;;;;17.38;5.10;;;;;;;;;;5001882;28;20049;-59
2020/12/19 03:03:21;;;;;;;13.63;6.07;;;;;;;;;;4999073;28;20042;-60
2020/12/19 03:05:47;;;;;;;15.35;5.85;;;;;;;;;;5003189;28;20066;-55
2020/12/19 03:08:13;;;;;;;13.45;5.75;;;;;;;;;;5014471;28;20073;-57
2020/12/19 03:10:39;;;;;;;17.30;5.95;;;;;;;;;;5022897;28;20037;-56
2020/12/19 03:13:05;;;;;;;18.58;5.18;;;;;;;;;;5014312;28;20054;-57
2020/12/19 03:15:32;;;;;;;14.80;5.40;;;;;;;;;;5020212;28;20077;-52
2020/12/19 03:18:00;;;;;;;13.30;5.47;;;;;;;;;;5006228;28;20052;-57
2020/12/19 03:20:26;;;;;;;14.60;5.13;;;;;;;;;;5001809;28;20042;-58
2020/12/19 03:22:53;;;;;;;14.82;5.70;;;;;;;;;;5008660;28;20355;-57
2020/12/19 03:25:19;;;;;;;18.50;5.97;;;;;;;;;;5021415;28;20049;-58
2020/12/19 03:27:45;;;;;;;13.80;5.65;;;;;;;;;;5009963;28;20054;-56
2020/12/19 03:30:11;;;;;;;14.48;6.13;;;;;;;;;;5000713;28;20140;-59
2020/12/19 03:32:38;;;;;;;12.40;5.97;;;;;;;;;;4999029;28;20057;-60
2020/12/19 03:35:04;;;;;;;15.90;6.63;;;;;;;;;;5001255;28;20053;-58
2020/12/19 03:37:33;;;;;;;14.65;6.25;;;;;;;;;;5000945;28;20038;-59
2020/12/19 03:39:59;;;;;;;14.40;6.22;;;;;;;;;;5003714;28;20065;-59
2020/12/19 03:42:25;;;;;;;16.70;5.38;;;;;;;;;;5004987;28;20139;-56
2020/12/19 03:44:51;;;;;;;16.25;5.47;;;;;;;;;;5019477;28;20041;-59
2020/12/19 03:47:17;;;;;;;12.27;5.53;;;;;;;;;;5022905;28;20052;-55
2020/12/19 03:49:44;;;;;;;12.90;5.88;;;;;;;;;;5020125;28;20049;-57
2020/12/19 03:52:10;;;;;;;16.10;6.03;;;;;;;;;;5024491;28;20040;-53
2020/12/19 03:54:36;;;;;;;21.83;7.22;;;;;;;;;;5020020;28;20046;-59
2020/12/19 03:57:02;;;;;;;14.40;5.53;;;;;;;;;;5024683;28;20048;-55
2020/12/19 03:59:28;;;;;;;14.68;5.63;;;;;;;;;;5009662;28;20050;-57
2020/12/19 04:01:54;;;;;;;13.43;5.75;;;;;;;;;;5004197;28;20053;-56
2020/12/19 04:04:20;;;;;;;14.95;5.43;;;;;;;;;;5000065;28;20185;-56
2020/12/19 04:06:47;;;;;;;14.52;6.07;;;;;;;;;;5003965;28;20043;-60
2020/12/19 04:09:13;;;;;;;14.95;5.47;;;;;;;;;;5006412;28;20041;-56
2020/12/19 04:11:39;;;;;;;13.77;5.88;;;;;;;;;;5023341;28;20156;-56
2020/12/19 04:14:05;;;;;;;15.90;5.25;;;;;;;;;;5016995;28;20041;-57
2020/12/19 04:16:31;;;;;;;13.32;5.40;;;;;;;;;;5003509;28;20053;-58
2020/12/19 04:18:57;;;;;;;14.93;6.18;;;;;;;;;;4999791;28;20038;-51
2020/12/19 04:21:23;;;;;;;14.55;5.70;;;;;;;;;;5003495;28;20069;-55
2020/12/19 04:23:51;;;;;;;14.38;6.15;;;;;;;;;;5004192;28;20084;-52
2020/12/19 04:26:17;;;;;;;13.38;5.97;;;;;;;;;;5001389;28;20054;-51
2020/12/19 04:28:43;;;;;;;13.63;6.10;;;;;;;;;;5003841;28;20063;-52
2020/12/19 04:31:09;;;;;;;12.50;5.32;;;;;;;;;;4999540;28;20331;-54
2020/12/19 04:33:35;;;;;;;13.52;5.97;;;;;;;;;;5005591;28;20052;-54
2020/12/19 04:36:01;;;;;;;16.10;6.80;;;;;;;;;;5000320;28;20057;-57
2020/12/19 04:38:28;;;;;;;19.15;7.18;;;;;;;;;;5004105;28;20034;-54
2020/12/19 04:40:56;;;;;;;14.65;5.55;;;;;;;;;;5001094;28;20046;-50
2020/12/19 04:43:22;;;;;;;14.05;5.30;;;;;;;;;;5024333;28;20042;-57
2020/12/19 04:45:48;;;;;;;14.68;6.28;;;;;;;;;;5013059;28;20078;-55
2020/12/19 04:48:16;;;;;;;12.77;5.18;;;;;;;;;;5003773;28;20046;-53
2020/12/19 04:50:44;;;;;;;14.87;6.07;;;;;;;;;;5000630;28;20034;-57
2020/12/19 04:53:12;;;;;;;15.60;5.93;;;;;;;;;;5003888;28;20276;-55
2020/12/19 04:55:38;;;;;;;13.60;5.90;;;;;;;;;;4999817;28;20060;-57
2020/12/19 04:58:07;;;;;;;14.88;5.80;;;;;;;;;;5003669;28;20038;-56
2020/12/19 05:00:33;;;;;;;;;;;;;;;;;;5001631;28;20057;-58
2020/12/19 05:02:59;;;;;;;12.70;4.63;;;;;;;;;;5000781;28;19925;-57
2020/12/19 05:05:25;;;;;;;11.70;5.05;;;;;;;;;;5005350;28;20038;-59
2020/12/19 05:07:51;;;;;;;12.30;4.80;;;;;;;;;;5000642;28;20063;-59
2020/12/19 05:10:20;;;;;;;14.13;5.85;;;;;;;;;;4986323;28;20074;-57
2020/12/19 05:12:51;;;;;;;16.13;5.88;;;;;;;;;;5000354;28;20046;-56
2020/12/19 05:15:18;;;;;;;12.18;5.00;;;;;;;;;;5003407;28;20042;-55
2020/12/19 05:17:50;;;;;;;12.35;4.68;;;;;;;;;;5000260;28;20049;-56
2020/12/19 05:20:16;;;;;;;12.25;5.18;;;;;;;;;;5001881;28;20120;-58
2020/12/19 05:22:42;;;;;;;14.13;5.93;;;;;;;;;;5009896;28;20026;-58
2020/12/19 05:25:08;;;;;;;11.02;5.35;;;;;;;;;;5024122;28;20070;-55
2020/12/19 05:27:35;;;;;;;13.55;5.35;;;;;;;;;;5010548;28;20038;-55
2020/12/19 05:30:01;;;;;;;14.18;6.28;;;;;;;;;;5002282;28;20034;-55
2020/12/19 05:32:32;;;;;;;14.82;5.55;;;;;;;;;;5000932;28;20046;-56
2020/12/19 05:34:59;;;;;;;10.23;4.60;;;;;;;;;;5003672;28;20038;-56
2020/12/19 05:37:26;;;;;;;17.23;5.63;;;;;;;;;;5002988;28;20030;-54
2020/12/19 05:39:52;;;;;;;13.35;5.45;;;;;;;;;;5022693;28;20053;-54
2020/12/19 05:42:22;;;;;;;15.73;5.38;;;;;;;;;;5009467;28;20030;-53
2020/12/19 05:44:48;;;;;;;12.30;5.82;;;;;;;;;;5001629;28;20050;-54
2020/12/19 05:47:14;;;;;;;10.27;4.45;;;;;;;;;;5002415;28;20052;-54
2020/12/19 05:49:42;;;;;;;12.00;4.82;;;;;;;;;;4998605;28;20062;-52
2020/12/19 05:52:09;;;;;;;11.25;4.80;;;;;;;;;;5002381;28;20070;-54
2020/12/19 05:54:38;;;;;;;10.80;4.00;;;;;;;;;;4999780;28;20076;-52
2020/12/19 05:57:04;;;;;;;13.48;5.00;;;;;;;;;;5001652;28;20038;-50
2020/12/19 05:59:30;;;;;;;13.82;5.32;;;;;;;;;;4998893;28;20038;-51
2020/12/19 06:01:57;;;;;;;11.55;5.30;;;;;;;;;;5010693;28;20041;-50
2020/12/19 06:04:23;;;;;;;12.68;4.90;;;;;;;;;;5016572;28;20041;-51
2020/12/19 06:06:54;;;;;;;13.90;4.97;;;;;;;;;;5022868;28;20069;-52
2020/12/19 06:09:20;;;;;;;13.13;4.70;;;;;;;;;;5008821;28;20050;-51
2020/12/19 06:11:48;;;;;;;11.02;4.68;;;;;;;;;;5002852;28;20050;-52
2020/12/19 06:14:16;;;;;;;13.25;4.57;;;;;;;;;;5007173;28;20061;-57
2020/12/19 06:16:43;;;;;;;12.32;4.82;;;;;;;;;;5022735;28;20030;-54
2020/12/19 06:19:19;;;;;;;14.07;4.50;;;;;;;;;;5018652;28;20056;-56
2020/12/19 06:21:49;;;;;;;11.00;4.53;;;;;;;;;;5021679;28;20034;-51
2020/12/19 06:24:29;;;;;;;16.58;5.05;;;;;;;;;;5015084;28;20131;-57
2020/12/19 06:26:56;;;;;;;14.45;5.78;;;;;;;;;;5003471;28;20042;-55
2020/12/19 06:29:35;;;;;;;9.80;4.00;;;;;;;;;;5001125;28;20056;-57
2020/12/19 06:32:01;;;;;;;14.07;5.50;;;;;;;;;;5020121;28;20232;-57
2020/12/19 06:34:27;;;;;;;16.70;5.50;;;;;;;;;;5017204;28;20049;-55
2020/12/19 06:36:55;;;;;;;12.52;5.15;;;;;;;;;;5002425;28;20046;-58
2020/12/19 06:39:21;;;;;;;12.98;5.22;;;;;;;;;;5008524;28;20088;-55
2020/12/19 06:41:48;;;;;;;14.05;5.10;;;;;;;;;;5000604;28;20123;-58
2020/12/19 06:44:16;;;;;;;11.65;5.25;;;;;;;;;;5002885;28;20050;-53
2020/12/19 06:46:42;;;;;;;12.43;5.20;;;;;;;;;;4998952;28;20042;-57
2020/12/19 06:49:28;;;;;;;12.60;4.50;;;;;;;;;;5000915;28;20096;-52
2020/12/19 06:52:05;;;;;;;14.52;6.20;;;;;;;;;;5014245;28;20038;-56
2020/12/19 06:54:32;;;;;;;17.40;5.70;;;;;;;;;;5021442;28;20075;-54
2020/12/19 06:56:58;;;;;;;10.18;4.38;;;;;;;;;;5017268;28;20041;-57
2020/12/19 06:59:26;;;;;;;10.32;4.20;;;;;;;;;;5020162;28;20045;-56
2020/12/19 07:01:52;;;;;;;11.38;4.50;;;;;;;;;;5018578;28;20571;-60
2020/12/19 07:04:31;;;;;;;13.65;5.10;;;;;;;;;;5021821;28;20045;-62
2020/12/19 07:07:01;;;;;;;12.43;4.75;;;;;;;;;;5015340;28;20052;-61
2020/12/19 07:09:28;;;;;;;9.85;4.13;;;;;;;;;;5019227;28;20038;-60
2020/12/19 07:11:54;;;;;;;11.07;4.78;;;;;;;;;;5014239;28;20034;-58
2020/12/19 07:14:20;;;;;;;9.95;4.47;;;;;;;;;;5020194;28;20041;-54
2020/12/19 07:16:48;;;;;;;11.40;3.67;;;;;;;;;;5008743;28;20045;-58
2020/12/19 07:19:15;;;;;;;11.55;4.30;;;;;;;;;;5000719;28;20050;-56
2020/12/19 07:21:41;;;;;;;12.70;4.90;;;;;;;;;;5002284;28;20046;-53
2020/12/19 07:24:09;;;;;;;16.13;5.18;;;;;;;;;;5022220;28;20066;-52
2020/12/19 07:26:35;;;;;;;9.27;4.65;;;;;;;;;;5012957;28;20049;-58
2020/12/19 07:29:01;;;;;;;12.63;5.22;;;;;;;;;;5000366;28;20169;-56
2020/12/19 07:31:27;;;;;;;10.30;4.53;;;;;;;;;;4998239;28;20457;-55
2020/12/19 07:33:54;;;;;;;13.82;4.68;;;;;;;;;;5002157;28;20042;-55
2020/12/19 07:36:21;;;;;;;12.02;4.35;;;;;;;;;;5001481;28;20042;-55
2020/12/19 07:38:48;;;;;;;13.10;5.65;;;;;;;;;;5014130;28;20045;-56
2020/12/19 07:41:16;;;;;;;11.43;4.57;;;;;;;;;;5019103;28;21611;-58
2020/12/19 07:43:42;;;;;;;11.20;4.90;;;;;;;;;;5006158;28;20033;-57
2020/12/19 07:46:08;;;;;;;14.50;4.85;;;;;;;;;;5011711;28;20038;-59
2020/12/19 07:48:34;;;;;;;11.68;4.95;;;;;;;;;;5005069;28;20038;-57
2020/12/19 07:51:07;;;;;;;7.25;2.75;;;;;;;;;;5012934;28;20058;-58
2020/12/19 07:53:41;;;;;;;10.73;4.30;;;;;;;;;;5005039;28;20054;-58
2020/12/19 07:56:10;;;;;;;11.95;4.57;;;;;;;;;;5007887;28;20050;-58
2020/12/19 07:58:36;;;;;;;13.25;4.32;;;;;;;;;;5001056;28;20042;-59
2020/12/19 08:01:03;;;;;;;12.40;4.50;;;;;;;;;;5009113;28;20474;-58
2020/12/19 08:03:29;;;;;;;10.52;4.47;;;;;;;;;;5005477;28;20309;-54
2020/12/19 08:05:55;;;;;;;9.68;4.32;;;;;;;;;;5010928;28;20111;-57
2020/12/19 08:08:24;;;;;;;11.68;4.93;;;;;;;;;;5007068;28;20046;-59
2020/12/19 08:10:50;;;;;;;10.05;4.03;;;;;;;;;;5006748;28;20045;-57
2020/12/19 08:13:16;;;;;;;13.98;4.75;;;;;;;;;;5004659;28;20102;-57
2020/12/19 08:15:42;;;;;;;11.75;5.00;;;;;;;;;;5008398;28;20184;-58
2020/12/19 08:18:09;;;;;;;15.00;4.90;;;;;;;;;;5007452;28;20554;-59
2020/12/19 08:20:36;;;;;;;15.48;4.88;;;;;;;;;;5007184;28;20058;-57
2020/12/19 08:23:03;;;;;;;11.60;5.03;;;;;;;;;;5011714;28;20425;-54
2020/12/19 08:25:30;;;;;;;8.70;3.88;;;;;;;;;;5007083;28;20042;-59
2020/12/19 08:27:57;;;;;;;16.33;5.05;;;;;;;;;;5011829;28;20127;-56
2020/12/19 08:30:28;;;;;;;12.93;4.88;;;;;;;;;;5010049;28;20049;-57
2020/12/19 08:32:56;;;;;;;13.75;4.57;;;;;;;;;;5011389;28;20382;-58
2020/12/19 08:35:23;;;;;;;14.38;4.57;;;;;;;;;;5007338;28;20056;-54
2020/12/19 08:37:50;;;;;;;11.70;4.60;;;;;;;;;;5014852;28;20048;-54
2020/12/19 08:40:17;;;;;;;14.73;5.53;;;;;;;;;;5006309;28;20060;-56
2020/12/19 08:42:45;;;;;;;10.63;4.47;;;;;;;;;;5008803;28;20089;-57
2020/12/19 08:45:21;;;;;;;14.65;4.85;;;;;;;;;;5014875;28;20066;-58
2020/12/19 08:47:49;;;;;;;11.48;4.00;;;;;;;;;;5014034;28;20056;-54
2020/12/19 08:50:15;;;;;;;10.65;4.63;;;;;;;;;;5010863;28;20128;-57
2020/12/19 08:52:41;;;;;;;10.93;4.22;;;;;;;;;;5011609;28;20026;-53
2020/12/19 08:55:07;;;;;;;13.35;4.63;;;;;;;;;;5008607;28;20046;-55
2020/12/19 08:57:37;;;;;;;11.38;4.43;;;;;;;;;;5014737;28;20044;-58
2020/12/19 09:00:16;;;;;;;9.68;3.70;;;;;;;;;;5010826;28;20483;-56
2020/12/19 09:02:42;;;;;;;9.52;3.83;;;;;;;;;;5010719;28;20041;-54
2020/12/19 09:05:12;;;;;;;14.60;5.28;;;;;;;;;;5005129;28;20031;-58
2020/12/19 09:07:39;;;;;;;11.80;5.00;;;;;;;;;;5011621;28;20149;-59
2020/12/19 09:10:24;;;;;;;19.95;4.93;;;;;;;;;;5009145;28;20041;-59
2020/12/19 09:13:05;;;;;;;11.77;4.85;;;;;;;;;;4973653;28;20041;-56
2020/12/19 09:15:35;;;;;;;12.65;4.90;;;;;;;;;;4996067;28;20030;-58
2020/12/19 09:18:17;;;;;;;11.60;4.28;;;;;;;;;;5011322;28;20034;-59
2020/12/19 09:20:44;;;;;;;14.38;4.63;;;;;;;;;;5011704;28;20048;-56
2020/12/19 09:23:10;;;;;;;10.52;4.45;;;;;;;;;;5008535;28;20026;-59
2020/12/19 09:25:36;;;;;;;18.30;5.57;;;;;;;;;;5010435;28;20085;-54
2020/12/19 09:28:02;;;;;;;13.70;5.15;;;;;;;;;;5007856;28;20034;-55
2020/12/19 09:30:28;;;;;;;12.68;4.25;;;;;;;;;;5013780;28;20093;-55
2020/12/19 09:32:57;;;;;;;13.48;4.45;;;;;;;;;;5002604;28;20053;-56
2020/12/19 09:35:26;;;;;;;;;;;;;;;;;;5005552;28;20132;-56
2020/12/19 09:37:56;;;;;;;12.70;3.83;;;;;;;;;;5006350;28;19921;-56
2020/12/19 09:40:24;;;;;;;12.98;4.35;;;;;;;;;;5002074;28;20058;-58
2020/12/19 09:42:51;;;;;;;11.90;4.32;;;;;;;;;;5003541;28;20049;-56
2020/12/19 09:45:17;;;;;;;11.77;5.32;;;;;;;;;;5010578;28;20419;-53
2020/12/19 09:47:43;;;;;;;10.05;3.75;;;;;;;;;;5007765;28;20079;-60
2020/12/19 09:50:10;;;;;;;11.07;4.57;;;;;;;;;;5010796;28;20053;-58
2020/12/19 09:52:36;;;;;;;14.02;4.80;;;;;;;;;;5009464;28;20034;-59
2020/12/19 09:55:06;;;;;;;13.02;4.82;;;;;;;;;;5003782;28;20058;-53
2020/12/19 09:57:38;;;;;;;11.40;4.55;;;;;;;;;;4999323;28;20053;-56
2020/12/19 10:00:05;;;;;;;10.63;4.47;;;;;;;;;;5002337;28;20034;-53
2020/12/19 10:02:31;;;;;;;14.43;5.05;;;;;;;;;;4999077;28;20344;-58
2020/12/19 10:04:57;;;;;;;12.23;5.15;;;;;;;;;;5002209;28;20054;-58
2020/12/19 10:07:26;;;;;;;15.77;4.50;;;;;;;;;;4962482;28;20443;-60
2020/12/19 10:09:52;;;;;;;16.33;4.78;;;;;;;;;;4960690;28;20047;-57
2020/12/19 10:12:26;;;;;;;11.52;4.85;;;;;;;;;;4963828;28;20047;-58
2020/12/19 10:14:52;;;;;;;7.60;2.85;;;;;;;;;;4960021;28;20035;-54
2020/12/19 10:17:18;;;;;;;15.40;5.60;;;;;;;;;;4963815;28;20034;-60
2020/12/19 10:19:46;;;;;;;12.20;5.07;;;;;;;;;;4974613;28;20146;-58
2020/12/19 10:22:12;;;;;;;12.60;4.90;;;;;;;;;;4983334;28;20095;-57
2020/12/19 10:24:40;;;;;;;15.68;4.85;;;;;;;;;;4969435;28;20035;-56
2020/12/19 10:27:08;;;;;;;11.93;4.50;;;;;;;;;;4964498;28;20125;-54
2020/12/19 10:29:35;;;;;;;11.10;4.43;;;;;;;;;;4959416;28;20043;-57
2020/12/19 10:32:05;;;;;;;11.75;4.32;;;;;;;;;;4962327;28;20051;-59
2020/12/19 10:34:31;;;;;;;13.13;4.80;;;;;;;;;;4959504;28;20047;-56
2020/12/19 10:37:01;;;;;;;12.32;4.88;;;;;;;;;;4962310;28;20071;-59
2020/12/19 10:39:27;;;;;;;14.00;4.97;;;;;;;;;;4958742;28;20141;-57
2020/12/19 10:41:57;;;;;;;14.23;5.63;;;;;;;;;;4970314;28;20042;-56
2020/12/19 10:44:24;;;;;;;11.38;4.88;;;;;;;;;;4975230;28;20085;-57
2020/12/19 10:46:50;;;;;;;13.70;5.65;;;;;;;;;;4964860;28;20053;-54
2020/12/19 10:49:16;;;;;;;13.13;4.75;;;;;;;;;;4959893;28;20039;-54
2020/12/19 10:51:42;;;;;;;8.50;3.78;;;;;;;;;;4982978;28;20039;-56
2020/12/19 10:54:08;;;;;;;10.80;4.75;;;;;;;;;;4982070;28;20070;-55
2020/12/19 10:56:37;;;;;;;12.55;5.57;;;;;;;;;;4977595;28;20166;-57
2020/12/19 10:59:04;;;;;;;15.10;4.50;;;;;;;;;;4982124;28;20038;-57
2020/12/19 11:01:30;;;;;;;12.75;5.45;;;;;;;;;;4964884;28;20039;-58
2020/12/19 11:03:56;;;;;;;11.80;4.45;;;;;;;;;;4980932;28;20050;-59
2020/12/19 11:06:24;;;;;;;12.18;4.45;;;;;;;;;;4998192;28;20119;-56
2020/12/19 11:08:53;;;;;;;11.27;4.78;;;;;;;;;;5019292;28;20049;-56
2020/12/19 11:11:19;;;;;;;11.00;4.13;;;;;;;;;;5015267;28;20113;-57
2020/12/19 11:13:45;;;;;;;11.32;4.55;;;;;;;;;;5020872;28;20103;-58
2020/12/19 11:16:21;;;;;;;13.18;4.60;;;;;;;;;;5016560;28;20037;-60
2020/12/19 11:18:47;;;;;;;11.65;4.85;;;;;;;;;;5019997;28;20041;-58
2020/12/19 11:21:13;;;;;;;4.28;2.22;;;;;;;;;;5017927;28;20042;-60
2020/12/19 11:23:39;;;;;;;10.85;4.60;;;;;;;;;;5021289;28;20054;-60
2020/12/19 11:26:07;;;;;;;10.65;4.68;;;;;;;;;;5013080;28;20095;-60
2020/12/19 11:28:36;;;;;;;13.38;4.70;;;;;;;;;;4994403;28;20041;-60
2020/12/19 11:31:02;;;;;;;10.18;4.65;;;;;;;;;;4999023;28;20128;-60
2020/12/19 11:33:32;;;;;;;14.70;5.97;;;;;;;;;;5019741;28;20062;-58
2020/12/19 11:36:01;;;;;;;16.15;7.72;;;;;;;;;;5019225;28;20246;-60
2020/12/19 11:38:28;;;;;;;11.45;4.88;;;;;;;;;;4999856;28;20153;-55
2020/12/19 11:40:55;;;;;;;11.40;5.05;;;;;;;;;;5000533;28;20046;-58
2020/12/19 11:43:21;;;;;;;14.75;5.20;;;;;;;;;;4999100;28;20041;-60
2020/12/19 11:45:47;;;;;;;9.88;4.25;;;;;;;;;;5001472;28;20127;-62
2020/12/19 11:48:13;;;;;;;11.43;4.97;;;;;;;;;;4998933;28;20052;-59
2020/12/19 11:50:40;;;;;;;11.65;5.30;;;;;;;;;;5021859;28;20037;-58
2020/12/19 11:53:08;;;;;;;12.57;5.15;;;;;;;;;;5004937;28;20038;-61
2020/12/19 11:55:34;;;;;;;12.43;4.60;;;;;;;;;;5001438;28;20034;-59
2020/12/19 11:58:01;;;;;;;11.98;4.95;;;;;;;;;;4998444;28;20039;-58
2020/12/19 12:00:27;;;;;;;11.63;4.53;;;;;;;;;;5002898;28;20057;-59
2020/12/19 12:02:53;;;;;;;11.05;4.88;;;;;;;;;;5000688;28;20045;-59
2020/12/19 12:05:19;;;;;;;13.38;5.30;;;;;;;;;;5024115;28;20042;-59
2020/12/19 12:07:47;;;;;;;10.30;4.55;;;;;;;;;;5005500;28;20042;-61
2020/12/19 12:10:15;;;;;;;16.03;5.60;;;;;;;;;;5010792;28;20050;-59
2020/12/19 12:12:41;;;;;;;10.98;5.05;;;;;;;;;;5004322;28;20068;-58
2020/12/19 12:15:09;;;;;;;14.75;5.25;;;;;;;;;;5015959;28;20034;-60
2020/12/19 12:17:35;;;;;;;18.30;5.38;;;;;;;;;;5011327;28;20052;-60
2020/12/19 12:20:06;;;;;;;13.27;5.18;;;;;;;;;;5002625;28;20042;-60
2020/12/19 12:22:32;;;;;;;12.43;5.68;;;;;;;;;;5002146;28;20041;-59
2020/12/19 12:24:59;;;;;;;10.43;4.57;;;;;;;;;;5020565;28;20059;-61
2020/12/19 12:27:40;;;;;;;14.85;4.88;;;;;;;;;;5022749;28;20030;-58
2020/12/19 12:30:08;;;;;;;15.60;5.00;;;;;;;;;;4992927;28;20031;-58
2020/12/19 12:32:41;;;;;;;10.93;4.28;;;;;;;;;;5000782;28;20410;-58
2020/12/19 12:35:18;;;;;;;8.32;3.80;;;;;;;;;;4994231;28;20049;-58
2020/12/19 12:37:48;;;;;;;11.88;4.63;;;;;;;;;;4998695;28;20035;-59
2020/12/19 12:40:15;;;;;;;10.25;4.28;;;;;;;;;;5017111;28;20040;-57
2020/12/19 12:42:41;;;;;;;10.98;4.43;;;;;;;;;;5009310;28;20121;-58
2020/12/19 12:45:09;;;;;;;12.57;4.57;;;;;;;;;;5012242;28;20049;-59
2020/12/19 12:47:35;;;;;;;12.30;4.70;;;;;;;;;;5023780;28;20030;-60
2020/12/19 12:50:01;;;;;;;11.10;4.07;;;;;;;;;;5009036;28;20042;-57
2020/12/19 12:52:27;;;;;;;8.30;3.78;;;;;;;;;;5001603;28;20034;-58
2020/12/19 12:54:53;;;;;;;10.73;4.50;;;;;;;;;;5015347;28;20030;-57
2020/12/19 12:57:27;;;;;;;9.10;4.20;;;;;;;;;;5003745;28;20132;-58
2020/12/19 12:59:53;;;;;;;10.90;3.17;;;;;;;;;;5012982;28;20206;-60
2020/12/19 13:02:19;;;;;;;9.88;3.88;;;;;;;;;;5002358;28;20272;-58
2020/12/19 13:04:45;;;;;;;9.10;3.60;;;;;;;;;;4997772;28;20049;-54
2020/12/19 13:07:19;;;;;;;9.18;3.70;;;;;;;;;;5000916;28;20026;-57
2020/12/19 13:09:47;;;;;;;8.75;3.63;;;;;;;;;;4997231;28;20030;-58
2020/12/19 13:12:13;;;;;;;8.52;3.70;;;;;;;;;;5001580;28;20064;-57
2020/12/19 13:14:41;;;;;;;8.95;3.15;;;;;;;;;;5002251;28;20046;-56
2020/12/19 13:17:07;;;;;;;8.57;3.72;;;;;;;;;;5034337;28;20040;-59
2020/12/19 13:19:33;;;;;;;12.02;4.15;;;;;;;;;;5024469;28;20042;-60
2020/12/19 13:21:59;;;;;;;10.32;4.32;;;;;;;;;;5005060;28;20030;-58
2020/12/19 13:24:25;;;;;;;9.35;4.28;;;;;;;;;;5004904;28;20042;-58
2020/12/19 13:26:54;;;;;;;13.13;4.57;;;;;;;;;;4997603;28;20242;-58
2020/12/19 13:29:20;;;;;;;9.57;3.40;;;;;;;;;;5003223;28;20046;-58
2020/12/19 13:31:48;;;;;;;4.78;2.08;;;;;;;;;;4999519;28;20050;-59
2020/12/19 13:34:14;;;;;;;6.25;2.47;;;;;;;;;;5002802;28;20038;-60
2020/12/19 13:36:41;;;;;;;9.00;3.80;;;;;;;;;;5002440;28;20177;-60
2020/12/19 13:39:07;;;;;;;10.57;2.83;;;;;;;;;;5002188;28;20046;-59
2020/12/19 13:41:34;;;;;;;5.53;2.25;;;;;;;;;;4998457;28;20062;-59
2020/12/19 13:44:01;;;;;;;5.18;2.22;;;;;;;;;;5003133;28;20046;-59
2020/12/19 13:46:27;;;;;;;3.78;1.65;;;;;;;;;;5000468;28;20041;-59
2020/12/19 13:48:54;;;;;;;6.78;2.00;;;;;;;;;;5002018;28;20058;-61
2020/12/19 13:51:27;;;;;;;5.28;2.10;;;;;;;;;;4998849;28;20046;-60
2020/12/19 13:53:53;;;;;;;5.22;2.30;;;;;;;;;;5001901;28;20046;-61
2020/12/19 13:56:39;;;;;;;6.60;2.00;;;;;;;;;;5002394;28;20038;-58
2020/12/19 13:59:06;;;;;;;4.80;1.73;;;;;;;;;;4942145;28;20055;-59
2020/12/19 14:01:32;;;;;;;6.15;1.80;;;;;;;;;;4996518;28;20037;-60
2020/12/19 14:03:59;;;;;;;7.03;1.92;;;;;;;;;;4999635;28;20038;-58
2020/12/19 14:06:28;;;;;;;5.90;2.25;;;;;;;;;;5003002;28;20065;-58
2020/12/19 14:08:57;;;;;;;5.72;2.10;;;;;;;;;;4997875;28;20045;-58
2020/12/19 14:11:27;;;;;;;4.75;1.30;;;;;;;;;;5002794;28;20046;-60
2020/12/19 14:13:53;;;;;;;3.88;1.63;;;;;;;;;;5014803;28;20049;-59
2020/12/19 14:16:27;;;;;;;3.75;1.50;;;;;;;;;;5022645;28;20057;-59
2020/12/19 14:18:53;;;;;;;5.95;1.80;;;;;;;;;;5003706;28;20038;-60
2020/12/19 14:21:19;;;;;;;4.22;1.70;;;;;;;;;;5002415;28;20049;-60
2020/12/19 14:23:46;;;;;;;3.92;1.67;;;;;;;;;;4999723;28;20512;-58
2020/12/19 14:26:19;;;;;;;4.72;2.05;;;;;;;;;;5002944;28;20458;-59
2020/12/19 14:28:45;;;;;;;6.07;1.58;;;;;;;;;;4998185;28;20034;-59
2020/12/19 14:31:11;;;;;;;3.30;1.48;;;;;;;;;;5000984;28;20086;-61
2020/12/19 14:33:37;;;;;;;4.57;1.75;;;;;;;;;;5006702;28;20048;-58